sensor_id;sensor_type;location;lat;lon;timestamp;temperature;humidity
9941;DHT22;5009;50.656;7.188;2022-10-22T00:00:28;14.50;99.90
9941;DHT22;5009;50.656;7.188;2022-10-22T00:02:53;14.50;99.90
9941;DHT22;5009;50.656;7.188;2022-10-22T00:05:19;14.50;99.90
9941;DHT22;5009;50.656;7.188;2022-10-22T00:07:45;14.50;99.90
9941;DHT22;5009;50.656;7.188;2022-10-22T00:10:11;14.50;99.90
9941;DHT22;5009;50.656;7.188;2022-10-22T00:12:36;14.40;99.90
9941;DHT22;5009;50.656;7.188;2022-10-22T00:15:04;14.50;99.90
9941;DHT22;5009;50.656;7.188;2022-10-22T00:17:30;14.40;99.90
9941;DHT22;5009;50.656;7.188;2022-10-22T00:19:55;14.40;99.90
9941;DHT22;5009;50.656;7.188;2022-10-22T00:22:21;14.40;99.90
9941;DHT22;5009;50.656;7.188;2022-10-22T00:24:46;14.30;99.90
9941;DHT22;5009;50.656;7.188;2022-10-22T00:27:12;14.30;99.90
9941;DHT22;5009;50.656;7.188;2022-10-22T00:29:38;14.30;99.90
9941;DHT22;5009;50.656;7.188;2022-10-22T00:32:04;14.30;99.90
9941;DHT22;5009;50.656;7.188;2022-10-22T00:34:30;14.30;99.90
9941;DHT22;5009;50.656;7.188;2022-10-22T00:36:56;14.40;99.90
9941;DHT22;5009;50.656;7.188;2022-10-22T00:39:23;14.40;99.90
9941;DHT22;5009;50.656;7.188;2022-10-22T00:41:52;14.40;99.90
9941;DHT22;5009;50.656;7.188;2022-10-22T00:45:04;14.40;99.90
9941;DHT22;5009;50.656;7.188;2022-10-22T00:47:38;14.40;99.90
9941;DHT22;5009;50.656;7.188;2022-10-22T00:50:15;14.40;99.90
9941;DHT22;5009;50.656;7.188;2022-10-22T00:52:41;14.40;99.90
9941;DHT22;5009;50.656;7.188;2022-10-22T00:55:07;14.40;99.90
9941;DHT22;5009;50.656;7.188;2022-10-22T00:57:34;14.50;99.90
9941;DHT22;5009;50.656;7.188;2022-10-22T01:00:00;14.50;99.90
9941;DHT22;5009;50.656;7.188;2022-10-22T01:02:26;14.50;99.90
9941;DHT22;5009;50.656;7.188;2022-10-22T01:04:52;14.60;99.90
9941;DHT22;5009;50.656;7.188;2022-10-22T01:07:20;14.60;99.90
9941;DHT22;5009;50.656;7.188;2022-10-22T01:09:58;14.60;99.90
9941;DHT22;5009;50.656;7.188;2022-10-22T01:21:41;14.60;99.90
9941;DHT22;5009;50.656;7.188;2022-10-22T01:24:31;14.60;99.90
9941;DHT22;5009;50.656;7.188;2022-10-22T01:29:43;14.70;99.90
9941;DHT22;5009;50.656;7.188;2022-10-22T01:32:17;14.70;99.90
9941;DHT22;5009;50.656;7.188;2022-10-22T01:34:47;14.60;99.90
9941;DHT22;5009;50.656;7.188;2022-10-22T01:37:14;14.60;99.90
9941;DHT22;5009;50.656;7.188;2022-10-22T01:39:42;14.60;99.90
9941;DHT22;5009;50.656;7.188;2022-10-22T01:42:11;14.60;99.90
9941;DHT22;5009;50.656;7.188;2022-10-22T01:44:37;14.50;99.90
9941;DHT22;5009;50.656;7.188;2022-10-22T01:47:31;14.60;99.90
9941;DHT22;5009;50.656;7.188;2022-10-22T01:50:23;14.60;99.90
9941;DHT22;5009;50.656;7.188;2022-10-22T01:58:33;14.60;99.90
9941;DHT22;5009;50.656;7.188;2022-10-22T02:03:45;14.70;99.90
9941;DHT22;5009;50.656;7.188;2022-10-22T02:06:18;14.70;99.90
9941;DHT22;5009;50.656;7.188;2022-10-22T02:08:45;14.70;99.90
9941;DHT22;5009;50.656;7.188;2022-10-22T02:11:12;14.70;99.90
9941;DHT22;5009;50.656;7.188;2022-10-22T02:13:43;14.70;99.90
9941;DHT22;5009;50.656;7.188;2022-10-22T02:16:13;14.70;99.90
9941;DHT22;5009;50.656;7.188;2022-10-22T02:18:41;14.60;99.90
9941;DHT22;5009;50.656;7.188;2022-10-22T02:21:09;14.60;99.90
9941;DHT22;5009;50.656;7.188;2022-10-22T02:23:35;14.70;99.90
9941;DHT22;5009;50.656;7.188;2022-10-22T02:26:27;14.70;99.90
9941;DHT22;5009;50.656;7.188;2022-10-22T02:28:55;14.70;99.90
9941;DHT22;5009;50.656;7.188;2022-10-22T02:31:27;14.70;99.90
9941;DHT22;5009;50.656;7.188;2022-10-22T02:33:55;14.70;99.90
9941;DHT22;5009;50.656;7.188;2022-10-22T02:36:22;14.70;99.90
9941;DHT22;5009;50.656;7.188;2022-10-22T02:38:50;14.70;99.90
9941;DHT22;5009;50.656;7.188;2022-10-22T02:41:17;14.70;99.90
9941;DHT22;5009;50.656;7.188;2022-10-22T02:43:49;14.70;99.90
9941;DHT22;5009;50.656;7.188;2022-10-22T02:46:14;14.80;99.90
9941;DHT22;5009;50.656;7.188;2022-10-22T02:48:40;14.80;99.90
9941;DHT22;5009;50.656;7.188;2022-10-22T02:51:05;14.80;99.90
9941;DHT22;5009;50.656;7.188;2022-10-22T02:53:31;14.80;99.90
9941;DHT22;5009;50.656;7.188;2022-10-22T02:55:57;14.80;99.90
9941;DHT22;5009;50.656;7.188;2022-10-22T02:58:23;14.80;99.90
9941;DHT22;5009;50.656;7.188;2022-10-22T03:00:48;14.70;99.90
9941;DHT22;5009;50.656;7.188;2022-10-22T03:03:14;14.70;99.90
9941;DHT22;5009;50.656;7.188;2022-10-22T03:05:39;14.60;99.90
9941;DHT22;5009;50.656;7.188;2022-10-22T03:08:05;14.60;99.90
9941;DHT22;5009;50.656;7.188;2022-10-22T03:10:31;14.60;99.90
9941;DHT22;5009;50.656;7.188;2022-10-22T03:12:56;14.60;99.90
9941;DHT22;5009;50.656;7.188;2022-10-22T03:15:22;14.50;99.90
9941;DHT22;5009;50.656;7.188;2022-10-22T03:17:47;14.50;99.90
9941;DHT22;5009;50.656;7.188;2022-10-22T03:20:13;14.50;99.90
9941;DHT22;5009;50.656;7.188;2022-10-22T03:22:40;14.50;99.90
9941;DHT22;5009;50.656;7.188;2022-10-22T03:25:13;14.50;99.90
9941;DHT22;5009;50.656;7.188;2022-10-22T03:27:39;14.50;99.90
9941;DHT22;5009;50.656;7.188;2022-10-22T03:30:07;14.50;99.90
9941;DHT22;5009;50.656;7.188;2022-10-22T03:32:33;14.40;99.90
9941;DHT22;5009;50.656;7.188;2022-10-22T03:34:58;14.40;99.90
9941;DHT22;5009;50.656;7.188;2022-10-22T03:37:25;14.40;99.90
9941;DHT22;5009;50.656;7.188;2022-10-22T03:39:52;14.40;99.90
9941;DHT22;5009;50.656;7.188;2022-10-22T03:42:18;14.40;99.90
9941;DHT22;5009;50.656;7.188;2022-10-22T03:44:44;14.40;99.90
9941;DHT22;5009;50.656;7.188;2022-10-22T03:47:10;14.40;99.90
9941;DHT22;5009;50.656;7.188;2022-10-22T03:49:35;14.40;99.90
9941;DHT22;5009;50.656;7.188;2022-10-22T03:52:06;14.40;99.90
9941;DHT22;5009;50.656;7.188;2022-10-22T03:54:32;14.40;99.90
9941;DHT22;5009;50.656;7.188;2022-10-22T03:56:57;14.30;99.90
9941;DHT22;5009;50.656;7.188;2022-10-22T03:59:23;14.30;99.90
9941;DHT22;5009;50.656;7.188;2022-10-22T04:01:48;14.30;99.90
9941;DHT22;5009;50.656;7.188;2022-10-22T04:04:14;14.20;99.90
9941;DHT22;5009;50.656;7.188;2022-10-22T04:06:39;14.20;99.90
9941;DHT22;5009;50.656;7.188;2022-10-22T04:09:05;14.20;99.90
9941;DHT22;5009;50.656;7.188;2022-10-22T04:11:30;14.10;99.90
9941;DHT22;5009;50.656;7.188;2022-10-22T04:13:56;14.10;99.90
9941;DHT22;5009;50.656;7.188;2022-10-22T04:16:22;14.10;99.90
9941;DHT22;5009;50.656;7.188;2022-10-22T04:18:49;14.20;99.90
9941;DHT22;5009;50.656;7.188;2022-10-22T04:21:17;14.20;99.90
9941;DHT22;5009;50.656;7.188;2022-10-22T04:23:47;14.10;99.90
9941;DHT22;5009;50.656;7.188;2022-10-22T04:26:13;14.10;99.90
9941;DHT22;5009;50.656;7.188;2022-10-22T04:28:38;14.10;99.90
9941;DHT22;5009;50.656;7.188;2022-10-22T04:31:12;14.10;99.90
9941;DHT22;5009;50.656;7.188;2022-10-22T04:33:38;14.10;99.90
9941;DHT22;5009;50.656;7.188;2022-10-22T04:36:12;14.10;99.90
9941;DHT22;5009;50.656;7.188;2022-10-22T04:38:39;14.10;99.90
9941;DHT22;5009;50.656;7.188;2022-10-22T04:41:25;14.00;99.90
9941;DHT22;5009;50.656;7.188;2022-10-22T04:43:53;14.00;99.90
9941;DHT22;5009;50.656;7.188;2022-10-22T04:46:18;14.00;99.90
9941;DHT22;5009;50.656;7.188;2022-10-22T04:48:44;14.00;99.90
9941;DHT22;5009;50.656;7.188;2022-10-22T04:51:14;14.00;99.90
9941;DHT22;5009;50.656;7.188;2022-10-22T04:53:40;14.00;99.90
9941;DHT22;5009;50.656;7.188;2022-10-22T04:58:44;13.90;99.90
9941;DHT22;5009;50.656;7.188;2022-10-22T05:01:13;13.80;99.90
9941;DHT22;5009;50.656;7.188;2022-10-22T05:03:39;13.80;99.90
9941;DHT22;5009;50.656;7.188;2022-10-22T05:06:05;13.80;99.90
9941;DHT22;5009;50.656;7.188;2022-10-22T05:08:30;13.80;99.90
9941;DHT22;5009;50.656;7.188;2022-10-22T05:10:56;13.80;99.90
9941;DHT22;5009;50.656;7.188;2022-10-22T05:13:21;13.70;99.90
9941;DHT22;5009;50.656;7.188;2022-10-22T05:15:47;13.70;99.90
9941;DHT22;5009;50.656;7.188;2022-10-22T05:18:12;13.70;99.90
9941;DHT22;5009;50.656;7.188;2022-10-22T05:20:39;13.60;99.90
9941;DHT22;5009;50.656;7.188;2022-10-22T05:23:05;13.60;99.90
9941;DHT22;5009;50.656;7.188;2022-10-22T05:25:31;13.50;99.90
9941;DHT22;5009;50.656;7.188;2022-10-22T05:27:56;13.50;99.90
9941;DHT22;5009;50.656;7.188;2022-10-22T05:30:22;13.50;99.90
9941;DHT22;5009;50.656;7.188;2022-10-22T05:32:47;13.40;99.90
9941;DHT22;5009;50.656;7.188;2022-10-22T05:35:13;13.40;99.90
9941;DHT22;5009;50.656;7.188;2022-10-22T05:37:38;13.40;99.90
9941;DHT22;5009;50.656;7.188;2022-10-22T05:40:04;13.30;99.90
9941;DHT22;5009;50.656;7.188;2022-10-22T05:42:31;13.30;99.90
9941;DHT22;5009;50.656;7.188;2022-10-22T05:44:57;13.30;99.90
9941;DHT22;5009;50.656;7.188;2022-10-22T05:47:22;13.30;99.90
9941;DHT22;5009;50.656;7.188;2022-10-22T05:49:48;13.30;99.90
9941;DHT22;5009;50.656;7.188;2022-10-22T05:52:14;13.30;99.90
9941;DHT22;5009;50.656;7.188;2022-10-22T05:54:39;13.30;99.90
9941;DHT22;5009;50.656;7.188;2022-10-22T05:57:05;13.30;99.90
9941;DHT22;5009;50.656;7.188;2022-10-22T05:59:30;13.30;99.90
9941;DHT22;5009;50.656;7.188;2022-10-22T06:01:56;13.30;99.90
9941;DHT22;5009;50.656;7.188;2022-10-22T06:04:21;13.30;99.90
9941;DHT22;5009;50.656;7.188;2022-10-22T06:06:49;13.30;99.90
9941;DHT22;5009;50.656;7.188;2022-10-22T06:09:28;13.30;99.90
9941;DHT22;5009;50.656;7.188;2022-10-22T06:11:55;13.30;99.90
9941;DHT22;5009;50.656;7.188;2022-10-22T06:14:21;13.30;99.90
9941;DHT22;5009;50.656;7.188;2022-10-22T06:16:47;13.30;99.90
9941;DHT22;5009;50.656;7.188;2022-10-22T06:19:14;13.30;99.90
9941;DHT22;5009;50.656;7.188;2022-10-22T06:21:41;13.30;99.90
9941;DHT22;5009;50.656;7.188;2022-10-22T06:24:07;13.30;99.90
9941;DHT22;5009;50.656;7.188;2022-10-22T06:26:33;13.30;99.90
9941;DHT22;5009;50.656;7.188;2022-10-22T06:28:59;13.40;99.90
9941;DHT22;5009;50.656;7.188;2022-10-22T06:31:26;13.30;99.90
9941;DHT22;5009;50.656;7.188;2022-10-22T06:33:52;13.40;99.90
9941;DHT22;5009;50.656;7.188;2022-10-22T06:36:20;13.50;99.90
9941;DHT22;5009;50.656;7.188;2022-10-22T06:38:46;13.50;99.90
9941;DHT22;5009;50.656;7.188;2022-10-22T06:41:14;13.60;99.90
9941;DHT22;5009;50.656;7.188;2022-10-22T06:43:41;13.60;99.90
9941;DHT22;5009;50.656;7.188;2022-10-22T06:46:10;13.60;99.90
9941;DHT22;5009;50.656;7.188;2022-10-22T06:48:37;13.70;99.90
9941;DHT22;5009;50.656;7.188;2022-10-22T06:51:11;13.80;99.90
9941;DHT22;5009;50.656;7.188;2022-10-22T06:53:38;13.90;99.90
9941;DHT22;5009;50.656;7.188;2022-10-22T06:56:06;14.00;99.90
9941;DHT22;5009;50.656;7.188;2022-10-22T06:58:32;14.00;99.90
9941;DHT22;5009;50.656;7.188;2022-10-22T07:01:02;14.00;99.90
9941;DHT22;5009;50.656;7.188;2022-10-22T07:03:28;14.00;99.90
9941;DHT22;5009;50.656;7.188;2022-10-22T07:05:54;14.00;99.90
9941;DHT22;5009;50.656;7.188;2022-10-22T07:08:19;14.10;99.90
9941;DHT22;5009;50.656;7.188;2022-10-22T07:10:45;14.10;99.90
9941;DHT22;5009;50.656;7.188;2022-10-22T07:13:10;14.10;99.90
9941;DHT22;5009;50.656;7.188;2022-10-22T07:15:36;14.10;99.90
9941;DHT22;5009;50.656;7.188;2022-10-22T07:18:01;14.20;99.90
9941;DHT22;5009;50.656;7.188;2022-10-22T07:20:29;14.20;99.90
9941;DHT22;5009;50.656;7.188;2022-10-22T07:22:54;14.20;99.90
9941;DHT22;5009;50.656;7.188;2022-10-22T07:25:20;14.70;99.90
9941;DHT22;5009;50.656;7.188;2022-10-22T07:27:45;16.00;99.90
9941;DHT22;5009;50.656;7.188;2022-10-22T07:30:11;16.90;99.90
9941;DHT22;5009;50.656;7.188;2022-10-22T07:32:37;17.80;99.90
9941;DHT22;5009;50.656;7.188;2022-10-22T07:35:02;18.70;99.90
9941;DHT22;5009;50.656;7.188;2022-10-22T07:37:28;20.20;99.90
9941;DHT22;5009;50.656;7.188;2022-10-22T07:39:54;21.20;99.90
9941;DHT22;5009;50.656;7.188;2022-10-22T07:42:19;22.30;99.90
9941;DHT22;5009;50.656;7.188;2022-10-22T07:44:45;23.40;99.90
9941;DHT22;5009;50.656;7.188;2022-10-22T07:47:11;24.20;99.90
9941;DHT22;5009;50.656;7.188;2022-10-22T07:49:36;23.90;99.90
9941;DHT22;5009;50.656;7.188;2022-10-22T07:52:02;23.60;99.90
9941;DHT22;5009;50.656;7.188;2022-10-22T07:54:27;23.00;99.90
9941;DHT22;5009;50.656;7.188;2022-10-22T07:56:53;22.60;99.90
9941;DHT22;5009;50.656;7.188;2022-10-22T07:59:18;21.80;99.90
9941;DHT22;5009;50.656;7.188;2022-10-22T08:01:44;21.10;99.90
9941;DHT22;5009;50.656;7.188;2022-10-22T08:04:11;20.10;99.90
9941;DHT22;5009;50.656;7.188;2022-10-22T08:06:36;19.50;99.90
9941;DHT22;5009;50.656;7.188;2022-10-22T08:09:03;18.80;99.90
9941;DHT22;5009;50.656;7.188;2022-10-22T08:11:28;18.70;99.90
9941;DHT22;5009;50.656;7.188;2022-10-22T08:13:54;18.40;99.90
9941;DHT22;5009;50.656;7.188;2022-10-22T08:16:19;18.10;99.90
9941;DHT22;5009;50.656;7.188;2022-10-22T08:18:45;17.90;99.90
9941;DHT22;5009;50.656;7.188;2022-10-22T08:21:11;17.70;99.90
9941;DHT22;5009;50.656;7.188;2022-10-22T08:23:37;17.40;99.90
9941;DHT22;5009;50.656;7.188;2022-10-22T08:26:03;17.20;99.90
9941;DHT22;5009;50.656;7.188;2022-10-22T08:28:29;17.00;99.90
9941;DHT22;5009;50.656;7.188;2022-10-22T08:30:57;17.00;99.90
9941;DHT22;5009;50.656;7.188;2022-10-22T08:33:22;16.80;99.90
9941;DHT22;5009;50.656;7.188;2022-10-22T08:35:50;16.80;99.90
9941;DHT22;5009;50.656;7.188;2022-10-22T08:38:16;17.00;99.90
9941;DHT22;5009;50.656;7.188;2022-10-22T08:40:42;17.00;99.90
9941;DHT22;5009;50.656;7.188;2022-10-22T08:43:22;17.20;99.90
9941;DHT22;5009;50.656;7.188;2022-10-22T08:46:09;17.20;99.90
9941;DHT22;5009;50.656;7.188;2022-10-22T08:48:42;17.50;99.90
9941;DHT22;5009;50.656;7.188;2022-10-22T08:51:16;17.80;99.90
9941;DHT22;5009;50.656;7.188;2022-10-22T08:53:58;17.70;99.90
9941;DHT22;5009;50.656;7.188;2022-10-22T08:56:26;17.80;99.90
9941;DHT22;5009;50.656;7.188;2022-10-22T08:59:00;17.70;99.90
9941;DHT22;5009;50.656;7.188;2022-10-22T09:01:38;17.70;99.90
9941;DHT22;5009;50.656;7.188;2022-10-22T09:04:53;17.70;99.90
9941;DHT22;5009;50.656;7.188;2022-10-22T09:07:09;17.80;99.90
9941;DHT22;5009;50.656;7.188;2022-10-22T09:09:41;17.80;99.90
9941;DHT22;5009;50.656;7.188;2022-10-22T09:12:14;17.80;99.90
9941;DHT22;5009;50.656;7.188;2022-10-22T09:14:40;17.70;99.90
9941;DHT22;5009;50.656;7.188;2022-10-22T09:22:51;17.30;99.90
9941;DHT22;5009;50.656;7.188;2022-10-22T09:25:23;17.10;99.90
9941;DHT22;5009;50.656;7.188;2022-10-22T09:27:51;16.90;99.90
9941;DHT22;5009;50.656;7.188;2022-10-22T09:30:27;16.90;99.90
9941;DHT22;5009;50.656;7.188;2022-10-22T09:33:22;16.90;99.90
9941;DHT22;5009;50.656;7.188;2022-10-22T09:35:57;16.80;99.90
9941;DHT22;5009;50.656;7.188;2022-10-22T09:38:30;16.80;99.90
9941;DHT22;5009;50.656;7.188;2022-10-22T09:40:57;16.80;99.90
9941;DHT22;5009;50.656;7.188;2022-10-22T09:43:24;16.80;99.90
9941;DHT22;5009;50.656;7.188;2022-10-22T09:46:00;16.80;99.90
9941;DHT22;5009;50.656;7.188;2022-10-22T09:48:35;16.90;99.90
9941;DHT22;5009;50.656;7.188;2022-10-22T09:51:22;17.00;99.90
9941;DHT22;5009;50.656;7.188;2022-10-22T09:53:56;17.10;99.90
9941;DHT22;5009;50.656;7.188;2022-10-22T09:56:34;17.20;99.90
9941;DHT22;5009;50.656;7.188;2022-10-22T09:59:00;17.20;99.90
9941;DHT22;5009;50.656;7.188;2022-10-22T10:01:34;17.30;99.90
9941;DHT22;5009;50.656;7.188;2022-10-22T10:04:05;17.40;99.90
9941;DHT22;5009;50.656;7.188;2022-10-22T10:06:33;17.50;99.90
9941;DHT22;5009;50.656;7.188;2022-10-22T10:08:59;17.50;99.90
9941;DHT22;5009;50.656;7.188;2022-10-22T10:14:19;17.70;99.90
9941;DHT22;5009;50.656;7.188;2022-10-22T10:16:57;17.80;99.90
9941;DHT22;5009;50.656;7.188;2022-10-22T10:19:45;17.90;99.90
9941;DHT22;5009;50.656;7.188;2022-10-22T10:22:29;17.90;99.90
9941;DHT22;5009;50.656;7.188;2022-10-22T10:27:53;18.10;99.90
9941;DHT22;5009;50.656;7.188;2022-10-22T10:30:22;18.10;99.90
9941;DHT22;5009;50.656;7.188;2022-10-22T10:41:14;18.20;99.90
9941;DHT22;5009;50.656;7.188;2022-10-22T10:47:02;18.30;99.90
9941;DHT22;5009;50.656;7.188;2022-10-22T10:49:32;18.20;99.90
9941;DHT22;5009;50.656;7.188;2022-10-22T11:00:55;18.30;99.90
9941;DHT22;5009;50.656;7.188;2022-10-22T11:06:31;18.30;99.90
9941;DHT22;5009;50.656;7.188;2022-10-22T11:09:06;18.30;99.90
9941;DHT22;5009;50.656;7.188;2022-10-22T11:11:50;18.30;99.90
9941;DHT22;5009;50.656;7.188;2022-10-22T11:14:25;18.40;99.90
9941;DHT22;5009;50.656;7.188;2022-10-22T11:19:37;18.40;99.90
9941;DHT22;5009;50.656;7.188;2022-10-22T11:24:48;18.70;99.90
9941;DHT22;5009;50.656;7.188;2022-10-22T11:27:41;18.60;99.90
9941;DHT22;5009;50.656;7.188;2022-10-22T11:30:19;18.70;99.90
9941;DHT22;5009;50.656;7.188;2022-10-22T11:32:48;18.80;99.90
9941;DHT22;5009;50.656;7.188;2022-10-22T11:35:41;18.70;99.90
9941;DHT22;5009;50.656;7.188;2022-10-22T11:38:06;18.70;99.90
9941;DHT22;5009;50.656;7.188;2022-10-22T11:40:58;18.80;99.90
9941;DHT22;5009;50.656;7.188;2022-10-22T11:43:30;18.80;99.90
9941;DHT22;5009;50.656;7.188;2022-10-22T11:48:42;19.00;99.90
9941;DHT22;5009;50.656;7.188;2022-10-22T11:51:36;19.00;99.90
9941;DHT22;5009;50.656;7.188;2022-10-22T11:54:27;19.10;99.90
9941;DHT22;5009;50.656;7.188;2022-10-22T11:57:11;19.10;99.90
9941;DHT22;5009;50.656;7.188;2022-10-22T12:02:43;19.10;99.90
9941;DHT22;5009;50.656;7.188;2022-10-22T12:07:50;19.00;99.90
9941;DHT22;5009;50.656;7.188;2022-10-22T12:10:21;19.00;99.90
9941;DHT22;5009;50.656;7.188;2022-10-22T12:12:59;19.10;99.90
9941;DHT22;5009;50.656;7.188;2022-10-22T12:15:26;19.10;99.90
9941;DHT22;5009;50.656;7.188;2022-10-22T12:17:59;19.00;99.90
9941;DHT22;5009;50.656;7.188;2022-10-22T12:20:25;19.10;99.90
9941;DHT22;5009;50.656;7.188;2022-10-22T12:22:51;19.10;99.90
9941;DHT22;5009;50.656;7.188;2022-10-22T12:25:30;19.20;99.90
9941;DHT22;5009;50.656;7.188;2022-10-22T12:27:58;19.30;99.90
9941;DHT22;5009;50.656;7.188;2022-10-22T12:30:34;19.40;99.90
9941;DHT22;5009;50.656;7.188;2022-10-22T12:33:02;19.50;99.90
9941;DHT22;5009;50.656;7.188;2022-10-22T12:35:32;19.40;99.90
9941;DHT22;5009;50.656;7.188;2022-10-22T12:38:01;19.40;99.90
9941;DHT22;5009;50.656;7.188;2022-10-22T12:40:29;19.20;99.90
9941;DHT22;5009;50.656;7.188;2022-10-22T12:45:52;19.10;99.90
9941;DHT22;5009;50.656;7.188;2022-10-22T12:48:28;19.00;99.90
9941;DHT22;5009;50.656;7.188;2022-10-22T12:50:57;19.10;99.90
9941;DHT22;5009;50.656;7.188;2022-10-22T12:53:30;19.10;99.90
9941;DHT22;5009;50.656;7.188;2022-10-22T12:56:09;19.20;99.90
9941;DHT22;5009;50.656;7.188;2022-10-22T12:58:57;19.20;99.90
9941;DHT22;5009;50.656;7.188;2022-10-22T13:01:26;19.30;99.90
9941;DHT22;5009;50.656;7.188;2022-10-22T13:04:05;19.40;99.90
9941;DHT22;5009;50.656;7.188;2022-10-22T13:06:33;19.50;99.90
9941;DHT22;5009;50.656;7.188;2022-10-22T13:09:05;19.50;99.90
9941;DHT22;5009;50.656;7.188;2022-10-22T13:11:36;19.60;99.90
9941;DHT22;5009;50.656;7.188;2022-10-22T13:14:04;19.70;99.90
9941;DHT22;5009;50.656;7.188;2022-10-22T13:16:30;19.70;99.90
9941;DHT22;5009;50.656;7.188;2022-10-22T13:18:56;19.70;99.90
9941;DHT22;5009;50.656;7.188;2022-10-22T13:21:28;19.80;99.90
9941;DHT22;5009;50.656;7.188;2022-10-22T13:24:00;19.80;99.90
9941;DHT22;5009;50.656;7.188;2022-10-22T13:26:35;19.80;99.90
9941;DHT22;5009;50.656;7.188;2022-10-22T13:29:02;19.90;99.90
9941;DHT22;5009;50.656;7.188;2022-10-22T13:31:34;19.90;99.90
9941;DHT22;5009;50.656;7.188;2022-10-22T13:34:04;19.90;99.90
9941;DHT22;5009;50.656;7.188;2022-10-22T13:36:31;19.80;99.90
9941;DHT22;5009;50.656;7.188;2022-10-22T13:38:57;19.80;99.90
9941;DHT22;5009;50.656;7.188;2022-10-22T13:41:28;19.80;99.90
9941;DHT22;5009;50.656;7.188;2022-10-22T13:43:56;19.80;99.90
9941;DHT22;5009;50.656;7.188;2022-10-22T13:46:23;19.80;99.90
9941;DHT22;5009;50.656;7.188;2022-10-22T13:48:51;19.80;99.90
9941;DHT22;5009;50.656;7.188;2022-10-22T13:51:23;19.80;99.90
9941;DHT22;5009;50.656;7.188;2022-10-22T13:53:50;19.80;99.90
9941;DHT22;5009;50.656;7.188;2022-10-22T13:56:21;19.80;99.90
9941;DHT22;5009;50.656;7.188;2022-10-22T13:58:47;19.80;99.90
9941;DHT22;5009;50.656;7.188;2022-10-22T14:03:48;19.80;99.90
9941;DHT22;5009;50.656;7.188;2022-10-22T14:06:16;19.90;99.90
9941;DHT22;5009;50.656;7.188;2022-10-22T14:08:45;19.90;99.90
9941;DHT22;5009;50.656;7.188;2022-10-22T14:11:11;19.90;99.90
9941;DHT22;5009;50.656;7.188;2022-10-22T14:13:37;19.80;99.90
9941;DHT22;5009;50.656;7.188;2022-10-22T14:16:05;19.80;99.90
9941;DHT22;5009;50.656;7.188;2022-10-22T14:18:32;19.70;99.90
9941;DHT22;5009;50.656;7.188;2022-10-22T14:21:00;19.70;99.90
9941;DHT22;5009;50.656;7.188;2022-10-22T14:23:30;19.70;99.90
9941;DHT22;5009;50.656;7.188;2022-10-22T14:25:57;19.60;99.90
9941;DHT22;5009;50.656;7.188;2022-10-22T14:28:22;19.60;99.90
9941;DHT22;5009;50.656;7.188;2022-10-22T14:30:49;19.60;99.90
9941;DHT22;5009;50.656;7.188;2022-10-22T14:33:30;19.60;99.90
9941;DHT22;5009;50.656;7.188;2022-10-22T14:35:56;19.50;99.90
9941;DHT22;5009;50.656;7.188;2022-10-22T14:38:22;19.60;99.90
9941;DHT22;5009;50.656;7.188;2022-10-22T14:40:48;19.60;99.90
9941;DHT22;5009;50.656;7.188;2022-10-22T14:43:21;19.60;99.90
9941;DHT22;5009;50.656;7.188;2022-10-22T14:45:47;19.60;99.90
9941;DHT22;5009;50.656;7.188;2022-10-22T14:48:12;19.60;99.90
9941;DHT22;5009;50.656;7.188;2022-10-22T14:50:38;19.60;99.90
9941;DHT22;5009;50.656;7.188;2022-10-22T14:53:03;19.60;99.90
9941;DHT22;5009;50.656;7.188;2022-10-22T14:55:29;19.60;99.90
9941;DHT22;5009;50.656;7.188;2022-10-22T14:57:54;19.60;99.90
9941;DHT22;5009;50.656;7.188;2022-10-22T15:00:20;19.50;99.90
9941;DHT22;5009;50.656;7.188;2022-10-22T15:02:47;19.60;99.90
9941;DHT22;5009;50.656;7.188;2022-10-22T15:05:13;19.60;99.90
9941;DHT22;5009;50.656;7.188;2022-10-22T15:07:40;19.60;99.90
9941;DHT22;5009;50.656;7.188;2022-10-22T15:10:06;19.60;99.90
9941;DHT22;5009;50.656;7.188;2022-10-22T15:12:32;19.50;99.90
9941;DHT22;5009;50.656;7.188;2022-10-22T15:14:58;19.40;99.90
9941;DHT22;5009;50.656;7.188;2022-10-22T15:17:23;19.30;99.90
9941;DHT22;5009;50.656;7.188;2022-10-22T15:19:49;19.30;99.90
9941;DHT22;5009;50.656;7.188;2022-10-22T15:22:15;19.30;99.90
9941;DHT22;5009;50.656;7.188;2022-10-22T15:24:41;19.10;99.90
9941;DHT22;5009;50.656;7.188;2022-10-22T15:27:11;19.10;99.90
9941;DHT22;5009;50.656;7.188;2022-10-22T15:29:40;19.00;99.90
9941;DHT22;5009;50.656;7.188;2022-10-22T15:32:06;19.00;99.90
9941;DHT22;5009;50.656;7.188;2022-10-22T15:34:35;19.00;99.90
9941;DHT22;5009;50.656;7.188;2022-10-22T15:37:04;18.90;99.90
9941;DHT22;5009;50.656;7.188;2022-10-22T15:39:30;18.90;99.90
9941;DHT22;5009;50.656;7.188;2022-10-22T15:41:56;18.80;99.90
9941;DHT22;5009;50.656;7.188;2022-10-22T15:44:28;18.80;99.90
9941;DHT22;5009;50.656;7.188;2022-10-22T15:46:54;18.80;99.90
9941;DHT22;5009;50.656;7.188;2022-10-22T15:49:21;18.70;99.90
9941;DHT22;5009;50.656;7.188;2022-10-22T15:51:47;18.70;99.90
9941;DHT22;5009;50.656;7.188;2022-10-22T15:54:15;18.60;99.90
9941;DHT22;5009;50.656;7.188;2022-10-22T15:56:41;18.60;99.90
9941;DHT22;5009;50.656;7.188;2022-10-22T15:59:09;18.60;99.90
9941;DHT22;5009;50.656;7.188;2022-10-22T16:01:35;18.50;99.90
9941;DHT22;5009;50.656;7.188;2022-10-22T16:04:01;18.40;99.90
9941;DHT22;5009;50.656;7.188;2022-10-22T16:06:41;18.40;99.90
9941;DHT22;5009;50.656;7.188;2022-10-22T16:09:09;18.40;99.90
9941;DHT22;5009;50.656;7.188;2022-10-22T16:11:35;18.40;99.90
9941;DHT22;5009;50.656;7.188;2022-10-22T16:14:01;18.40;99.90
9941;DHT22;5009;50.656;7.188;2022-10-22T16:16:30;18.30;99.90
9941;DHT22;5009;50.656;7.188;2022-10-22T16:18:56;18.30;99.90
9941;DHT22;5009;50.656;7.188;2022-10-22T16:21:23;18.30;99.90
9941;DHT22;5009;50.656;7.188;2022-10-22T16:23:49;18.20;99.90
9941;DHT22;5009;50.656;7.188;2022-10-22T16:26:16;18.20;99.90
9941;DHT22;5009;50.656;7.188;2022-10-22T16:28:43;18.10;99.90
9941;DHT22;5009;50.656;7.188;2022-10-22T16:31:10;18.10;99.90
9941;DHT22;5009;50.656;7.188;2022-10-22T16:33:37;18.10;99.90
9941;DHT22;5009;50.656;7.188;2022-10-22T16:36:05;18.00;99.90
9941;DHT22;5009;50.656;7.188;2022-10-22T16:38:31;18.00;99.90
9941;DHT22;5009;50.656;7.188;2022-10-22T16:41:08;17.90;99.90
9941;DHT22;5009;50.656;7.188;2022-10-22T16:43:33;17.90;99.90
9941;DHT22;5009;50.656;7.188;2022-10-22T16:45:59;17.90;99.90
9941;DHT22;5009;50.656;7.188;2022-10-22T16:48:24;17.80;99.90
9941;DHT22;5009;50.656;7.188;2022-10-22T16:50:50;17.80;99.90
9941;DHT22;5009;50.656;7.188;2022-10-22T16:53:17;17.70;99.90
9941;DHT22;5009;50.656;7.188;2022-10-22T16:55:42;17.60;99.90
9941;DHT22;5009;50.656;7.188;2022-10-22T16:58:08;17.60;99.90
9941;DHT22;5009;50.656;7.188;2022-10-22T17:00:33;17.60;99.90
9941;DHT22;5009;50.656;7.188;2022-10-22T17:02:59;17.50;99.90
9941;DHT22;5009;50.656;7.188;2022-10-22T17:05:25;17.50;99.90
9941;DHT22;5009;50.656;7.188;2022-10-22T17:07:51;17.40;99.90
9941;DHT22;5009;50.656;7.188;2022-10-22T17:10:17;17.40;99.90
9941;DHT22;5009;50.656;7.188;2022-10-22T17:12:47;17.40;99.90
9941;DHT22;5009;50.656;7.188;2022-10-22T17:15:12;17.30;99.90
9941;DHT22;5009;50.656;7.188;2022-10-22T17:17:38;17.20;99.90
9941;DHT22;5009;50.656;7.188;2022-10-22T17:20:04;17.20;99.90
9941;DHT22;5009;50.656;7.188;2022-10-22T17:22:31;17.20;99.90
9941;DHT22;5009;50.656;7.188;2022-10-22T17:25:20;17.10;99.90
9941;DHT22;5009;50.656;7.188;2022-10-22T17:27:46;17.10;99.90
9941;DHT22;5009;50.656;7.188;2022-10-22T17:30:18;16.90;99.90